This is the latest recevied weather packets stored in our database for station/object DH4SBM. If no packets are shown the sender has not sent any weather packets the latest 1 day(s).
| Time | Temp. | Humidity | Pressure | Rain* | Wind** | Luminosity | Snow |
|---|---|---|---|---|---|---|---|
| 1778002618 | 15° C | 84% | 1008.7 hPa | 0 mm | 1.34 m/s, 225° | 5 W/m² | - |
| 1778002018 | 15.56° C | 83% | 1008.6 hPa | 0 mm | 0.89 m/s, 225° | 12 W/m² | - |
| 1778001418 | 15.56° C | 83% | 1008.6 hPa | 0 mm | 0.45 m/s, 180° | 39 W/m² | - |
| 1778000819 | 15.56° C | 82% | 1008.5 hPa | 0 mm | 0 m/s | 54 W/m² | - |
| 1778000228 | 15.56° C | 83% | 1008.3 hPa | 0 mm | 0.45 m/s, 180° | 65 W/m² | - |
| 1777999619 | 15.56° C | 84% | 1008.3 hPa | 0 mm | 0.45 m/s, 180° | 86 W/m² | - |
| 1777999019 | 15° C | 85% | 1008.2 hPa | 0 mm | 0 m/s | 90 W/m² | - |
| 1777998419 | 15° C | 85% | 1008.2 hPa | 0 mm | 0.45 m/s, 90° | 105 W/m² | - |
| 1777997819 | 15° C | 86% | 1008.3 hPa | 0.25 mm | 0.89 m/s, 90° | 116 W/m² | - |
| 1777997219 | 14.44° C | 87% | 1008.2 hPa | 0.25 mm | 1.79 m/s, 45° | 237 W/m² | - |
| 1777996619 | 14.44° C | 87% | 1007.9 hPa | 0.51 mm | 2.68 m/s, 45° | 234 W/m² | - |
| 1777996019 | 14.44° C | 87% | 1008.3 hPa | 0.51 mm | 0.45 m/s, 68° | 149 W/m² | - |
| 1777995419 | 14.44° C | 88% | 1008.7 hPa | 0.51 mm | 0 m/s | 209 W/m² | - |
| 1777994819 | 13.89° C | 88% | 1008.8 hPa | 0.51 mm | 0 m/s | 104 W/m² | - |
| 1777994219 | 13.89° C | 88% | 1008.8 hPa | 0.51 mm | 0 m/s | 70 W/m² | - |
| 1777993619 | 13.89° C | 89% | 1008.8 hPa | 0.76 mm | 0 m/s | 63 W/m² | - |
| 1777993019 | 13.89° C | 89% | 1008.8 hPa | 1.02 mm | 0.45 m/s, 315° | 63 W/m² | - |
| 1777992419 | 13.89° C | 89% | 1009.1 hPa | 1.78 mm | 0.89 m/s, 292° | 67 W/m² | - |
| 1777991819 | 13.89° C | 90% | 1009.2 hPa | 2.29 mm | 0.89 m/s, 270° | 74 W/m² | - |
| 1777991219 | 13.89° C | 90% | 1009.3 hPa | 2.29 mm | 1.34 m/s, 248° | 72 W/m² | - |
| 1777990619 | 13.89° C | 90% | 1009.4 hPa | 2.54 mm | 1.79 m/s, 248° | 62 W/m² | - |
| 1777990019 | 13.89° C | 90% | 1009.6 hPa | 2.29 mm | 1.79 m/s, 248° | 62 W/m² | - |
| 1777989419 | 14.44° C | 90% | 1009.6 hPa | 2.03 mm | 2.68 m/s, 248° | 58 W/m² | - |
| 1777988819 | 14.44° C | 89% | 1009.5 hPa | 1.27 mm | 2.68 m/s, 248° | 35 W/m² | - |
| 1777988219 | 15° C | 88% | 1009.6 hPa | 0.76 mm | 3.58 m/s, 225° | 23 W/m² | - |
* Rain latest hour (hover to see other rain measurements)
** Current wind speed in m/s (hover to see current wind gust speed)